Time;durP1;ratioP1;P1;durP2;ratioP2;P2;SDS_P1;SDS_P2;PMS_P1;PMS_P2;Temp;Humidity;BMP_temperature;BMP_pressure;BME280_temperature;BME280_humidity;BME280_pressure;Samples;Min_cycle;Max_cycle;Signal;HPM_P1;HPM_P2
2022/05/13 00:01:40;;;;;;;1.80;1.70;;;19.10;99.90;;;;;;5068628;28;20204;-64
2022/05/13 00:04:07;;;;;;;1.50;1.40;;;19.00;99.90;;;;;;5066579;28;20249;-64
2022/05/13 00:06:34;;;;;;;1.90;1.50;;;19.00;99.90;;;;;;5069225;28;20218;-64
2022/05/13 00:09:02;;;;;;;1.63;1.52;;;19.00;99.90;;;;;;5068781;28;20270;-66
2022/05/13 00:11:29;;;;;;;1.60;1.50;;;19.00;99.90;;;;;;5064562;28;20200;-63
2022/05/13 00:13:56;;;;;;;1.52;1.40;;;19.00;99.90;;;;;;5069815;28;20254;-65
2022/05/13 00:16:23;;;;;;;1.27;1.27;;;19.00;99.90;;;;;;5068058;28;20215;-64
2022/05/13 00:18:50;;;;;;;1.30;1.30;;;19.00;99.90;;;;;;5069101;22;20319;-68
2022/05/13 00:21:17;;;;;;;1.48;1.38;;;19.10;99.90;;;;;;5048343;28;20240;-70
2022/05/13 00:23:44;;;;;;;1.55;1.45;;;19.10;99.90;;;;;;5051476;28;20232;-71
2022/05/13 00:26:12;;;;;;;1.60;1.50;;;19.10;99.90;;;;;;5040353;28;20287;-71
2022/05/13 00:28:39;;;;;;;1.38;1.33;;;19.10;99.90;;;;;;5047011;28;20330;-67
2022/05/13 00:31:06;;;;;;;1.35;1.30;;;19.10;99.90;;;;;;5051298;28;20696;-69
2022/05/13 00:33:33;;;;;;;1.35;1.35;;;19.10;99.90;;;;;;5052863;28;20196;-70
2022/05/13 00:36:00;;;;;;;1.60;1.50;;;19.00;99.90;;;;;;5053551;28;20268;-71
2022/05/13 00:38:27;;;;;;;1.58;1.48;;;19.10;99.90;;;;;;5053416;28;20311;-69
2022/05/13 00:40:54;;;;;;;1.10;1.10;;;19.10;99.90;;;;;;5053767;28;20235;-67
2022/05/13 00:43:44;;;;;;;1.48;1.38;;;19.10;99.90;;;;;;5055181;28;20208;-68
2022/05/13 00:46:11;;;;;;;1.40;1.40;;;19.10;99.90;;;;;;5054368;28;20197;-68
2022/05/13 00:48:38;;;;;;;1.20;1.20;;;19.10;99.90;;;;;;5048846;28;20212;-69
2022/05/13 00:51:06;;;;;;;1.20;1.20;;;19.10;99.90;;;;;;5033419;28;20232;-67
2022/05/13 00:53:35;;;;;;;1.58;1.50;;;19.20;99.90;;;;;;5034099;28;20287;-67
2022/05/13 00:56:02;;;;;;;1.20;1.20;;;19.20;99.90;;;;;;5032260;28;20232;-69
2022/05/13 00:58:30;;;;;;;1.30;1.30;;;19.20;99.90;;;;;;5032380;28;20226;-69
2022/05/13 01:00:58;;;;;;;1.55;1.45;;;19.20;99.90;;;;;;5034174;28;20295;-68
2022/05/13 01:03:26;;;;;;;1.10;1.10;;;19.10;99.90;;;;;;5056945;28;20295;-68
2022/05/13 01:05:59;;;;;;;1.60;1.50;;;19.10;99.90;;;;;;5046591;28;20699;-68
2022/05/13 01:08:27;;;;;;;1.80;1.70;;;19.10;99.90;;;;;;5032959;28;20324;-72
2022/05/13 01:10:56;;;;;;;1.80;1.70;;;19.00;99.90;;;;;;5034235;28;20212;-66
2022/05/13 01:13:28;;;;;;;1.70;1.60;;;18.90;99.90;;;;;;5035024;28;20296;-68
2022/05/13 01:15:56;;;;;;;1.77;1.67;;;18.90;99.90;;;;;;5033598;28;20299;-69
2022/05/13 01:18:30;;;;;;;1.70;1.60;;;19.00;99.90;;;;;;5038502;28;20260;-69
2022/05/13 01:20:58;;;;;;;1.67;1.65;;;19.00;99.90;;;;;;5037531;28;20208;-69
2022/05/13 01:23:30;;;;;;;1.50;1.50;;;19.00;99.90;;;;;;5037842;28;20204;-68
2022/05/13 01:25:59;;;;;;;1.70;1.60;;;18.90;99.90;;;;;;5037776;28;20203;-68
2022/05/13 01:28:30;;;;;;;1.90;1.80;;;18.90;99.90;;;;;;5040843;28;20231;-68
2022/05/13 01:31:00;;;;;;;1.48;1.48;;;19.00;99.90;;;;;;5038968;28;20702;-69
2022/05/13 01:33:28;;;;;;;1.70;1.60;;;19.00;99.90;;;;;;5036086;28;20279;-68
2022/05/13 01:36:00;;;;;;;1.70;1.60;;;19.00;99.90;;;;;;5035608;28;20243;-69
2022/05/13 01:38:31;;;;;;;2.13;1.67;;;18.90;99.90;;;;;;5035462;28;20271;-70
2022/05/13 01:40:59;;;;;;;1.48;1.40;;;18.80;99.90;;;;;;5034362;28;20192;-68
2022/05/13 01:43:27;;;;;;;1.80;1.70;;;18.70;99.90;;;;;;5034458;28;20678;-68
2022/05/13 01:45:54;;;;;;;1.67;1.58;;;18.60;99.90;;;;;;5034570;28;20308;-69
2022/05/13 01:48:22;;;;;;;1.63;1.52;;;18.50;99.90;;;;;;5034221;28;20799;-68
2022/05/13 01:50:49;;;;;;;1.30;1.30;;;18.50;99.90;;;;;;5033440;28;20201;-68
2022/05/13 01:53:16;;;;;;;1.30;1.30;;;18.50;99.90;;;;;;5034118;28;20295;-67
2022/05/13 01:55:44;;;;;;;1.30;1.30;;;18.50;99.90;;;;;;5034286;28;20239;-68
2022/05/13 01:58:12;;;;;;;1.13;1.13;;;18.70;99.90;;;;;;5034363;28;20398;-68
2022/05/13 02:00:39;;;;;;;1.20;1.20;;;18.70;99.90;;;;;;5032933;28;20682;-68
2022/05/13 02:05:51;;;;;;;1.10;1.10;;;18.80;99.90;;;;;;5034122;28;20216;-68
2022/05/13 02:08:18;;;;;;;1.50;1.42;;;18.80;99.90;;;;;;5034273;28;20718;-68
2022/05/13 02:10:46;;;;;;;1.42;1.33;;;18.80;99.90;;;;;;5037410;28;20280;-68
2022/05/13 02:13:15;;;;;;;1.02;1.02;;;18.80;99.90;;;;;;5036121;28;20646;-69
2022/05/13 02:15:42;;;;;;;1.10;1.10;;;18.70;99.90;;;;;;5034296;28;20212;-69
2022/05/13 02:18:10;;;;;;;1.00;1.00;;;18.70;99.90;;;;;;5035471;28;20703;-68
2022/05/13 02:20:39;;;;;;;1.13;1.13;;;18.80;99.90;;;;;;5033395;28;20204;-67
2022/05/13 02:23:06;;;;;;;1.00;1.00;;;18.80;99.90;;;;;;5048414;28;20261;-68
2022/05/13 02:25:33;;;;;;;1.10;1.10;;;18.80;99.90;;;;;;5054195;28;20269;-68
2022/05/13 02:28:02;;;;;;;0.90;0.90;;;18.80;99.90;;;;;;5054211;28;20263;-69
2022/05/13 02:30:29;;;;;;;1.20;1.20;;;18.80;99.90;;;;;;5053203;28;20208;-70
2022/05/13 02:32:56;;;;;;;1.00;1.00;;;18.70;99.90;;;;;;5053809;28;20670;-69
2022/05/13 02:35:24;;;;;;;1.00;1.00;;;18.70;99.90;;;;;;5053698;28;20287;-69
2022/05/13 02:37:52;;;;;;;1.00;1.00;;;18.70;99.90;;;;;;5054076;28;20268;-68
2022/05/13 02:40:20;;;;;;;1.00;1.00;;;18.70;99.90;;;;;;5052898;28;20211;-69
2022/05/13 02:42:47;;;;;;;1.75;1.10;;;18.70;99.90;;;;;;5053637;28;20203;-68
2022/05/13 02:45:16;;;;;;;1.27;1.27;;;18.70;99.90;;;;;;5053741;28;20655;-68
2022/05/13 02:47:43;;;;;;;1.30;1.20;;;18.70;99.90;;;;;;5061605;28;20224;-69
2022/05/13 02:50:19;;;;;;;0.90;0.90;;;18.70;99.90;;;;;;5057725;28;20308;-68
2022/05/13 02:52:47;;;;;;;1.20;1.10;;;18.70;99.90;;;;;;5049319;28;20671;-67
2022/05/13 02:55:14;;;;;;;1.40;1.30;;;18.60;99.90;;;;;;5037581;28;20216;-68
2022/05/13 02:57:42;;;;;;;1.00;1.00;;;18.50;99.90;;;;;;5038039;28;20256;-68
2022/05/13 03:00:10;;;;;;;1.00;1.00;;;18.50;99.90;;;;;;5037428;28;21086;-67
2022/05/13 03:02:38;;;;;;;1.00;1.00;;;18.50;99.90;;;;;;5033293;28;20671;-66
2022/05/13 03:05:06;;;;;;;1.20;1.08;;;18.50;99.90;;;;;;5032934;28;20303;-67
2022/05/13 03:07:32;;;;;;;1.00;1.00;;;18.40;99.90;;;;;;5033096;28;20347;-68
2022/05/13 03:09:59;;;;;;;1.00;1.00;;;18.40;99.90;;;;;;5032040;28;20235;-69
2022/05/13 03:12:26;;;;;;;0.93;0.93;;;18.30;99.90;;;;;;5043128;28;20299;-69
2022/05/13 03:14:53;;;;;;;1.02;1.00;;;18.30;99.90;;;;;;5032681;28;20238;-70
2022/05/13 03:17:20;;;;;;;1.00;1.00;;;18.30;99.90;;;;;;5032866;28;20323;-67
2022/05/13 03:19:48;;;;;;;0.95;0.95;;;18.30;99.90;;;;;;5036797;28;20272;-68
2022/05/13 03:22:16;;;;;;;1.03;1.03;;;18.20;99.90;;;;;;5041362;28;20232;-68
2022/05/13 03:24:43;;;;;;;0.90;0.90;;;18.20;99.90;;;;;;5042294;28;20220;-67
2022/05/13 03:27:10;;;;;;;1.40;1.30;;;18.20;99.90;;;;;;5039219;28;20303;-70
2022/05/13 03:29:37;;;;;;;1.15;1.15;;;18.10;99.90;;;;;;5033149;28;20574;-68
2022/05/13 03:32:05;;;;;;;1.30;1.20;;;18.10;99.90;;;;;;5035814;28;20338;-68
2022/05/13 03:34:32;;;;;;;1.17;1.17;;;18.10;99.90;;;;;;5040671;28;20231;-71
2022/05/13 03:37:00;;;;;;;1.52;1.13;;;17.90;99.90;;;;;;5043558;28;20227;-69
2022/05/13 03:39:27;;;;;;;1.52;1.42;;;17.80;99.90;;;;;;5032546;28;20240;-68
2022/05/13 03:41:54;;;;;;;1.20;1.20;;;17.80;99.90;;;;;;5031851;28;20702;-70
2022/05/13 03:44:21;;;;;;;1.07;1.07;;;17.80;99.90;;;;;;5032350;28;20216;-68
2022/05/13 03:46:48;;;;;;;1.30;1.20;;;17.70;99.90;;;;;;5032224;28;20200;-68
2022/05/13 03:49:15;;;;;;;1.13;1.10;;;17.70;99.90;;;;;;5031704;28;20209;-68
2022/05/13 03:51:42;;;;;;;1.25;1.20;;;17.80;99.90;;;;;;5031445;28;20323;-69
2022/05/13 03:54:11;;;;;;;1.00;1.00;;;17.80;99.90;;;;;;5032183;28;20231;-69
2022/05/13 03:56:38;;;;;;;2.17;1.25;;;17.90;99.90;;;;;;5032360;28;20209;-68
2022/05/13 03:59:05;;;;;;;1.10;1.10;;;17.90;99.90;;;;;;5032265;28;20228;-69
2022/05/13 04:01:32;;;;;;;1.10;1.00;;;17.80;99.90;;;;;;5032736;28;20240;-69
2022/05/13 04:03:59;;;;;;;1.00;1.00;;;17.80;99.90;;;;;;5032468;28;20283;-68
2022/05/13 04:09:11;;;;;;;1.48;1.38;;;17.80;99.90;;;;;;5032455;28;20215;-68
2022/05/13 04:11:42;;;;;;;1.20;1.20;;;17.80;99.90;;;;;;5032768;28;20773;-70
2022/05/13 04:16:55;;;;;;;1.00;1.00;;;17.70;99.90;;;;;;5032636;28;20254;-69
2022/05/13 04:19:24;;;;;;;1.33;1.10;;;17.70;99.90;;;;;;5032110;28;20561;-70
2022/05/13 04:21:51;;;;;;;1.20;1.20;;;17.60;99.90;;;;;;5030895;28;20250;-68
2022/05/13 04:24:20;;;;;;;1.10;1.10;;;17.50;99.90;;;;;;5031667;28;20209;-68
2022/05/13 04:26:48;;;;;;;1.53;1.00;;;17.50;99.90;;;;;;5031534;28;20299;-67
2022/05/13 04:29:15;;;;;;;1.47;1.30;;;17.50;99.90;;;;;;5032039;28;20300;-68
2022/05/13 04:31:44;;;;;;;1.00;1.00;;;17.50;99.90;;;;;;5031064;28;20636;-68
2022/05/13 04:34:11;;;;;;;1.10;1.10;;;17.40;99.90;;;;;;5031489;28;20208;-68
2022/05/13 04:36:38;;;;;;;1.17;1.08;;;17.40;99.90;;;;;;5038489;28;20291;-67
2022/05/13 04:39:06;;;;;;;0.97;0.97;;;17.40;99.90;;;;;;5047470;28;20266;-68
2022/05/13 04:44:34;;;;;;;1.40;1.30;;;17.50;99.90;;;;;;5008413;28;20203;-70
2022/05/13 04:47:00;;;;;;;1.42;1.33;;;17.40;99.90;;;;;;4999620;28;20730;-68
2022/05/13 04:49:27;;;;;;;1.00;1.00;;;17.30;99.90;;;;;;5013579;28;20291;-68
2022/05/13 04:51:55;;;;;;;1.10;1.10;;;17.30;99.90;;;;;;5056914;28;20242;-70
2022/05/13 04:54:22;;;;;;;1.10;1.10;;;17.40;99.90;;;;;;5051919;28;20819;-69
2022/05/13 04:56:50;;;;;;;0.90;0.90;;;17.40;99.90;;;;;;5045083;28;20299;-70
2022/05/13 04:59:17;;;;;;;1.23;1.23;;;17.40;99.90;;;;;;5043002;28;20197;-67
2022/05/13 05:01:44;;;;;;;1.20;1.10;;;17.40;99.90;;;;;;5049566;28;20268;-67
2022/05/13 05:04:11;;;;;;;1.00;1.00;;;17.40;99.90;;;;;;5052873;28;20290;-68
2022/05/13 05:06:38;;;;;;;1.20;1.05;;;17.40;99.90;;;;;;5067486;28;20588;-68
2022/05/13 05:09:05;;;;;;;1.13;1.00;;;17.10;99.90;;;;;;5052580;28;20223;-70
2022/05/13 05:11:32;;;;;;;1.25;1.15;;;17.40;99.90;;;;;;5067681;28;20200;-68
2022/05/13 05:14:00;;;;;;;0.90;0.90;;;17.40;99.90;;;;;;5057972;28;20214;-68
2022/05/13 05:16:28;;;;;;;1.25;1.10;;;17.40;99.90;;;;;;5057250;28;20558;-67
2022/05/13 05:18:56;;;;;;;0.93;0.93;;;17.40;99.90;;;;;;5058841;28;20736;-68
2022/05/13 05:21:22;;;;;;;1.45;1.20;;;17.40;99.90;;;;;;5065769;28;20207;-67
2022/05/13 05:23:49;;;;;;;0.82;0.82;;;17.40;99.90;;;;;;5067477;28;20226;-69
2022/05/13 05:26:16;;;;;;;1.20;1.20;;;17.40;99.90;;;;;;5057580;28;20224;-68
2022/05/13 05:28:44;;;;;;;1.02;1.02;;;17.40;99.90;;;;;;5050654;28;20310;-68
2022/05/13 05:31:13;;;;;;;1.30;1.20;;;17.40;99.90;;;;;;5054259;28;20590;-71
2022/05/13 05:33:40;;;;;;;0.90;0.90;;;17.40;99.90;;;;;;5058029;28;20204;-69
2022/05/13 05:36:08;;;;;;;1.00;1.00;;;17.40;99.90;;;;;;5060941;28;20211;-69
2022/05/13 05:38:34;;;;;;;1.10;1.10;;;17.50;99.90;;;;;;5049889;28;20224;-69
2022/05/13 05:41:02;;;;;;;1.20;1.10;;;17.40;99.90;;;;;;5044820;28;20617;-70
2022/05/13 05:43:29;;;;;;;1.10;1.10;;;17.30;99.90;;;;;;5055081;28;20693;-67
2022/05/13 05:45:58;;;;;;;1.30;1.20;;;17.20;99.90;;;;;;5057385;28;20315;-68
2022/05/13 05:48:27;;;;;;;1.73;1.23;;;17.20;99.90;;;;;;5046342;28;20227;-68
2022/05/13 05:50:56;;;;;;;1.00;1.00;;;17.20;99.90;;;;;;5051813;28;20208;-70
2022/05/13 05:58:49;;;;;;;1.02;1.02;;;17.40;99.90;;;;;;5056764;28;20773;-69
2022/05/13 06:01:16;;;;;;;1.20;1.10;;;17.40;99.90;;;;;;5044862;28;20715;-70
2022/05/13 06:03:44;;;;;;;1.00;1.00;;;17.50;99.90;;;;;;5053596;28;20673;-69
2022/05/13 06:06:12;;;;;;;1.30;1.20;;;17.40;99.90;;;;;;5057715;28;20219;-68
2022/05/13 06:08:39;;;;;;;1.30;1.20;;;17.50;99.90;;;;;;5046857;28;20225;-69
2022/05/13 06:11:06;;;;;;;0.95;0.95;;;17.50;99.90;;;;;;5052171;28;20737;-68
2022/05/13 06:13:33;;;;;;;1.37;1.20;;;17.60;99.90;;;;;;5053950;28;20218;-68
2022/05/13 06:16:00;;;;;;;1.10;1.00;;;17.60;99.90;;;;;;5053863;28;20235;-69
2022/05/13 06:18:27;;;;;;;0.85;0.85;;;17.70;99.90;;;;;;5053797;28;20667;-69
2022/05/13 06:20:55;;;;;;;1.00;1.00;;;17.70;99.90;;;;;;5052196;28;20742;-67
2022/05/13 06:23:22;;;;;;;1.63;1.30;;;17.70;99.90;;;;;;5046167;28;20295;-68
2022/05/13 06:25:49;;;;;;;0.90;0.90;;;17.70;99.90;;;;;;5053698;28;20234;-68
2022/05/13 06:28:16;;;;;;;1.03;1.03;;;17.70;99.90;;;;;;5049085;28;20633;-68
2022/05/13 06:30:43;;;;;;;1.20;1.10;;;17.70;99.90;;;;;;5048312;28;20318;-69
2022/05/13 06:33:10;;;;;;;1.00;1.00;;;17.70;99.90;;;;;;5053523;28;20316;-69
2022/05/13 06:35:38;;;;;;;1.20;1.10;;;17.60;99.90;;;;;;5053575;28;20199;-68
2022/05/13 06:38:08;;;;;;;1.30;1.20;;;17.60;99.90;;;;;;5053305;28;20227;-68
2022/05/13 06:40:35;;;;;;;1.08;1.00;;;17.50;99.90;;;;;;5053894;28;20661;-69
2022/05/13 06:43:02;;;;;;;1.15;1.15;;;17.50;99.90;;;;;;5046494;28;20200;-68
2022/05/13 06:45:29;;;;;;;1.38;1.27;;;17.50;99.90;;;;;;5031514;28;20224;-69
2022/05/13 06:47:55;;;;;;;1.58;1.48;;;17.50;99.90;;;;;;5055076;28;20255;-70
2022/05/13 06:50:22;;;;;;;1.20;1.10;;;17.50;99.90;;;;;;5044789;28;20203;-70
2022/05/13 06:52:49;;;;;;;1.00;1.00;;;17.50;99.90;;;;;;5053798;28;20224;-70
2022/05/13 06:55:19;;;;;;;1.10;1.10;;;17.50;99.90;;;;;;5064323;28;20518;-67
2022/05/13 06:57:46;;;;;;;1.27;1.17;;;17.50;99.90;;;;;;5046864;28;20235;-69
2022/05/13 07:00:14;;;;;;;1.10;1.10;;;17.40;99.90;;;;;;5040690;28;20295;-68
2022/05/13 07:02:41;;;;;;;1.23;1.20;;;17.40;99.90;;;;;;5032803;28;20215;-69
2022/05/13 07:05:10;;;;;;;1.52;1.40;;;17.50;99.90;;;;;;5039419;28;20210;-67
2022/05/13 07:07:37;;;;;;;1.20;1.10;;;17.50;99.90;;;;;;5039838;28;20224;-68
2022/05/13 07:10:05;;;;;;;1.00;1.00;;;17.60;99.90;;;;;;5039683;28;20200;-69
2022/05/13 07:12:33;;;;;;;1.17;1.07;;;17.50;99.90;;;;;;5031287;28;20226;-67
2022/05/13 07:15:02;;;;;;;0.80;0.80;;;17.50;99.90;;;;;;5037870;28;20211;-68
2022/05/13 07:17:29;;;;;;;1.13;1.13;;;17.50;99.90;;;;;;5045043;28;20227;-68
2022/05/13 07:19:56;;;;;;;1.70;1.20;;;17.60;99.90;;;;;;5051147;28;20283;-69
2022/05/13 07:22:23;;;;;;;1.08;1.08;;;17.70;99.90;;;;;;5051287;28;20203;-68
2022/05/13 07:24:51;;;;;;;1.77;1.10;;;17.70;99.90;;;;;;5050619;28;20615;-69
2022/05/13 07:27:18;;;;;;;1.30;1.20;;;17.80;99.90;;;;;;5051032;28;20695;-68
2022/05/13 07:29:46;;;;;;;1.20;1.10;;;17.80;99.90;;;;;;5051213;28;20294;-68
2022/05/13 07:32:13;;;;;;;0.90;0.90;;;17.80;99.90;;;;;;5052358;28;20418;-69
2022/05/13 07:34:40;;;;;;;1.10;1.10;;;17.90;99.90;;;;;;5051438;28;20277;-67
2022/05/13 07:37:07;;;;;;;1.25;1.20;;;18.00;99.90;;;;;;5034973;28;20301;-69
2022/05/13 07:42:18;;;;;;;1.30;1.20;;;18.20;99.90;;;;;;5037983;28;20203;-68
2022/05/13 07:44:47;;;;;;;1.15;1.00;;;18.20;99.90;;;;;;5040729;28;20288;-69
2022/05/13 07:47:14;;;;;;;1.63;1.23;;;18.20;99.90;;;;;;5043770;28;20293;-68
2022/05/13 07:49:42;;;;;;;1.00;1.00;;;18.20;99.90;;;;;;5042183;28;20547;-69
2022/05/13 07:52:10;;;;;;;1.10;1.10;;;18.20;99.90;;;;;;5040605;28;20646;-70
2022/05/13 07:54:37;;;;;;;1.90;1.17;;;18.20;99.90;;;;;;5031538;28;20295;-67
2022/05/13 07:57:05;;;;;;;1.30;1.20;;;18.20;99.90;;;;;;5030155;28;20208;-68
2022/05/13 08:00:24;;;;;;;1.00;1.00;;;18.30;99.90;;;;;;5031593;28;20300;-68
2022/05/13 08:02:21;;;;;;;1.00;1.00;;;18.30;99.90;;;;;;5050633;28;20622;-68
2022/05/13 08:04:48;;;;;;;1.17;1.00;;;18.20;99.90;;;;;;5055834;28;20299;-67
2022/05/13 08:07:16;;;;;;;1.00;1.00;;;18.30;99.90;;;;;;5042774;28;20232;-69
2022/05/13 08:09:42;;;;;;;1.30;1.20;;;18.40;99.90;;;;;;5051168;28;20238;-68
2022/05/13 08:12:10;;;;;;;1.40;1.30;;;18.50;99.90;;;;;;5051100;28;20239;-68
2022/05/13 08:14:37;;;;;;;1.40;1.30;;;18.50;99.90;;;;;;5066656;28;20200;-68
2022/05/13 08:17:04;;;;;;;1.20;1.10;;;18.50;99.90;;;;;;5045185;28;21044;-69
2022/05/13 08:19:33;;;;;;;1.50;1.13;;;18.50;99.90;;;;;;5049214;28;20208;-69
2022/05/13 08:21:59;;;;;;;1.00;1.00;;;18.50;99.90;;;;;;5057208;28;20200;-68
2022/05/13 08:24:26;;;;;;;1.27;1.17;;;18.50;99.90;;;;;;5058442;28;20249;-69
2022/05/13 08:26:54;;;;;;;1.00;1.00;;;18.60;99.90;;;;;;5056618;28;20223;-69
2022/05/13 08:29:20;;;;;;;1.45;1.20;;;18.60;99.90;;;;;;5054893;28;20227;-69
2022/05/13 08:31:47;;;;;;;1.10;1.10;;;18.60;99.90;;;;;;5054312;28;20303;-69
2022/05/13 08:34:16;;;;;;;0.90;0.90;;;18.60;99.90;;;;;;5055145;28;20290;-70
2022/05/13 08:36:44;;;;;;;1.00;1.00;;;18.60;99.90;;;;;;5054812;28;20240;-68
2022/05/13 08:39:11;;;;;;;1.00;1.00;;;18.70;99.90;;;;;;5054634;28;20713;-68
2022/05/13 08:41:55;;;;;;;1.00;1.00;;;18.70;99.90;;;;;;5054629;28;20208;-69
2022/05/13 08:44:22;;;;;;;1.07;1.07;;;18.80;99.90;;;;;;5054594;28;20192;-67
2022/05/13 08:46:57;;;;;;;1.13;1.10;;;18.80;99.90;;;;;;5054456;28;20227;-69
2022/05/13 08:49:31;;;;;;;1.00;1.00;;;19.00;99.90;;;;;;5054173;28;20842;-70
2022/05/13 08:55:05;;;;;;;1.10;1.10;;;19.20;99.90;;;;;;5054273;28;20205;-68
2022/05/13 08:57:36;;;;;;;1.23;1.10;;;19.30;99.90;;;;;;5054389;28;20315;-69
2022/05/13 09:00:08;;;;;;;0.95;0.95;;;19.30;99.90;;;;;;5053336;28;20279;-70
2022/05/13 09:02:38;;;;;;;1.30;1.20;;;19.40;99.90;;;;;;5054514;28;20199;-69
2022/05/13 09:05:11;;;;;;;1.10;1.10;;;19.60;99.90;;;;;;5054545;28;20776;-68
2022/05/13 09:07:44;;;;;;;0.90;0.90;;;19.70;99.90;;;;;;5054711;28;20235;-68
2022/05/13 09:10:11;;;;;;;1.30;1.20;;;19.90;99.90;;;;;;5053637;28;20299;-68
2022/05/13 09:12:44;;;;;;;1.33;1.23;;;19.90;99.90;;;;;;5054227;28;20662;-70
2022/05/13 09:15:19;;;;;;;1.35;1.33;;;19.90;99.90;;;;;;5054281;28;20203;-68
2022/05/13 09:18:00;;;;;;;1.23;1.13;;;20.00;99.90;;;;;;5053609;28;20729;-69
2022/05/13 09:20:27;;;;;;;1.15;1.05;;;20.00;99.90;;;;;;5055956;28;20830;-69
2022/05/13 09:22:58;;;;;;;1.67;1.58;;;20.00;99.90;;;;;;5052795;28;20693;-68
2022/05/13 09:25:28;;;;;;;1.17;1.08;;;20.10;99.90;;;;;;5046259;28;20215;-69
2022/05/13 09:27:59;;;;;;;1.40;1.30;;;20.20;99.90;;;;;;5053252;28;20965;-69
2022/05/13 09:30:34;;;;;;;1.00;1.00;;;20.30;99.90;;;;;;5053694;28;20203;-68
2022/05/13 09:33:19;;;;;;;1.23;1.23;;;20.80;99.90;;;;;;5053998;28;20704;-68
2022/05/13 09:35:48;;;;;;;1.50;1.38;;;21.10;99.90;;;;;;5053803;28;20208;-69
2022/05/13 09:38:18;;;;;;;1.30;1.20;;;21.00;99.90;;;;;;5053364;28;20224;-69
2022/05/13 09:40:58;;;;;;;1.15;1.15;;;21.20;99.90;;;;;;5053159;28;20299;-67
2022/05/13 09:43:36;;;;;;;1.65;1.20;;;21.70;99.90;;;;;;5053323;28;20623;-68
2022/05/13 09:46:05;;;;;;;3.35;1.40;;;21.80;99.90;;;;;;5058416;28;20612;-68
2022/05/13 09:48:35;;;;;;;1.77;1.20;;;21.70;99.90;;;;;;5054552;28;20254;-67
2022/05/13 09:51:22;;;;;;;1.02;1.02;;;22.00;99.90;;;;;;5044275;28;20286;-68
2022/05/13 09:54:04;;;;;;;1.05;1.05;;;22.50;99.90;;;;;;5052517;28;20199;-68
2022/05/13 09:56:43;;;;;;;1.30;1.20;;;22.80;99.90;;;;;;5065502;28;20586;-69
2022/05/13 09:59:17;;;;;;;1.23;1.20;;;22.70;99.90;;;;;;5062005;28;20731;-67
2022/05/13 10:01:44;;;;;;;1.38;1.27;;;22.60;99.90;;;;;;5063767;28;20195;-69
2022/05/13 10:04:13;;;;;;;0.95;0.95;;;22.20;99.90;;;;;;5063715;28;20214;-69
2022/05/13 10:06:42;;;;;;;1.30;1.20;;;21.80;99.90;;;;;;5068732;28;20290;-70
2022/05/13 10:15:08;;;;;;;1.23;1.20;;;21.10;99.90;;;;;;5056721;28;20238;-68
2022/05/13 10:17:36;;;;;;;1.40;1.30;;;20.90;99.90;;;;;;5072169;22;20233;-63
2022/05/13 10:20:08;;;;;;;1.20;1.10;;;20.80;99.90;;;;;;5068150;28;20418;-64
2022/05/13 10:22:42;;;;;;;1.17;1.10;;;20.60;99.90;;;;;;5071159;28;20695;-64
2022/05/13 10:25:15;;;;;;;0.90;0.90;;;20.60;99.90;;;;;;5070922;28;20290;-63
2022/05/13 10:27:49;;;;;;;1.17;1.10;;;20.60;99.90;;;;;;5067067;28;20215;-63
2022/05/13 10:30:21;;;;;;;0.80;0.80;;;20.60;99.90;;;;;;5070706;28;20394;-63
2022/05/13 10:32:56;;;;;;;1.23;1.17;;;20.60;99.90;;;;;;5071491;28;20324;-63
2022/05/13 10:35:28;;;;;;;0.82;0.75;;;20.70;99.90;;;;;;5063058;28;20253;-63
2022/05/13 10:38:06;;;;;;;1.00;1.00;;;20.70;99.90;;;;;;5072710;28;20259;-63
2022/05/13 10:40:37;;;;;;;1.20;1.10;;;20.70;99.90;;;;;;5071848;28;20190;-63
2022/05/13 10:43:10;;;;;;;1.00;1.00;;;20.70;99.90;;;;;;5072261;28;20253;-63
2022/05/13 10:45:39;;;;;;;0.90;0.90;;;20.80;99.90;;;;;;5072364;28;20680;-62
2022/05/13 10:48:18;;;;;;;0.95;0.95;;;21.00;99.90;;;;;;5071590;28;20231;-63
2022/05/13 10:50:57;;;;;;;1.00;1.00;;;21.10;99.90;;;;;;5071329;28;20557;-61
2022/05/13 10:53:31;;;;;;;0.93;0.93;;;21.10;99.90;;;;;;5073069;28;20570;-61
2022/05/13 10:56:08;;;;;;;1.00;1.00;;;21.10;99.90;;;;;;5072071;28;20792;-62
2022/05/13 10:58:43;;;;;;;0.85;0.85;;;21.10;99.90;;;;;;5070904;28;20214;-63
2022/05/13 11:01:20;;;;;;;1.00;1.00;;;21.40;99.90;;;;;;5071501;28;20183;-63
2022/05/13 11:03:59;;;;;;;1.13;1.02;;;21.70;99.90;;;;;;5072149;28;20235;-62
2022/05/13 11:06:40;;;;;;;0.88;0.88;;;21.90;99.90;;;;;;5071615;28;20730;-62
2022/05/13 11:09:19;;;;;;;1.15;1.00;;;22.10;99.90;;;;;;5071479;28;20213;-63
2022/05/13 11:11:48;;;;;;;0.95;0.95;;;22.30;99.90;;;;;;5070846;28;20290;-64
2022/05/13 11:14:34;;;;;;;0.82;0.82;;;22.50;99.90;;;;;;5071565;28;20347;-64
2022/05/13 11:17:12;;;;;;;0.90;0.90;;;22.60;99.90;;;;;;5071172;28;20223;-63
2022/05/13 11:19:48;;;;;;;1.00;1.00;;;22.80;99.90;;;;;;5070129;28;20715;-63
2022/05/13 11:22:23;;;;;;;1.00;1.00;;;22.80;99.90;;;;;;5055910;28;20631;-63
2022/05/13 11:28:01;;;;;;;1.10;1.00;;;23.00;99.90;;;;;;5051817;28;20238;-64
2022/05/13 11:30:38;;;;;;;0.90;0.90;;;23.20;99.90;;;;;;5051231;28;20207;-64
2022/05/13 11:33:25;;;;;;;0.95;0.95;;;23.10;99.90;;;;;;5052754;28;20191;-64
2022/05/13 11:36:07;;;;;;;1.25;1.15;;;23.30;99.90;;;;;;5051405;28;20556;-64
2022/05/13 11:38:51;;;;;;;1.00;1.00;;;23.40;99.90;;;;;;5051528;28;20291;-63
2022/05/13 11:41:22;;;;;;;1.02;1.00;;;23.60;99.90;;;;;;5050503;28;20200;-62
2022/05/13 11:43:58;;;;;;;1.02;1.02;;;23.70;99.90;;;;;;5051797;28;20617;-63
2022/05/13 11:46:48;;;;;;;1.13;1.02;;;23.70;99.90;;;;;;5052871;28;20315;-64
2022/05/13 11:49:22;;;;;;;1.10;1.00;;;23.70;99.90;;;;;;5071845;28;20253;-65
2022/05/13 11:51:49;;;;;;;0.80;0.80;;;23.70;99.90;;;;;;5071201;28;20231;-64
2022/05/13 11:54:28;;;;;;;0.90;0.90;;;24.00;99.90;;;;;;5071647;28;20217;-64
2022/05/13 11:57:24;;;;;;;0.80;0.80;;;24.20;99.90;;;;;;5071419;28;20258;-63
2022/05/13 11:59:54;;;;;;;1.00;1.00;;;24.30;99.90;;;;;;5025484;28;20598;-64
2022/05/13 12:02:35;;;;;;;1.30;1.20;;;24.10;99.90;;;;;;5070886;28;20215;-64
2022/05/13 12:05:10;;;;;;;1.00;1.00;;;24.00;99.90;;;;;;5071821;28;20238;-62
2022/05/13 12:07:49;;;;;;;0.90;0.90;;;23.80;99.90;;;;;;5072337;28;20270;-63
2022/05/13 12:10:18;;;;;;;0.95;0.95;;;23.60;99.90;;;;;;5072287;28;20278;-63
2022/05/13 12:12:56;;;;;;;1.00;1.00;;;23.80;99.90;;;;;;5071935;28;20210;-63
2022/05/13 12:15:35;;;;;;;0.98;0.95;;;24.00;99.90;;;;;;5072736;28;20203;-62
2022/05/13 12:18:11;;;;;;;1.02;1.02;;;24.30;99.90;;;;;;5072151;28;20229;-62
2022/05/13 12:20:49;;;;;;;2.28;1.30;;;24.50;99.90;;;;;;5070762;28;20222;-63
2022/05/13 12:23:22;;;;;;;1.10;1.10;;;24.30;99.90;;;;;;5071017;28;20551;-62
2022/05/13 12:25:52;;;;;;;1.08;1.08;;;23.60;99.90;;;;;;5070912;28;20207;-64
2022/05/13 12:28:55;;;;;;;1.23;1.10;;;23.60;99.90;;;;;;5070871;28;20243;-64
2022/05/13 12:31:44;;;;;;;0.80;0.80;;;23.80;99.90;;;;;;5067288;28;20203;-64
2022/05/13 12:40:06;;;;;;;0.90;0.90;;;24.40;99.90;;;;;;5071397;28;20241;-63
2022/05/13 12:42:42;;;;;;;1.33;1.08;;;24.40;99.90;;;;;;5070671;28;20944;-63
2022/05/13 12:45:12;;;;;;;1.95;1.10;;;24.10;99.90;;;;;;5070602;28;20203;-62
2022/05/13 12:47:59;;;;;;;2.10;1.42;;;23.80;99.90;;;;;;5070833;28;20239;-62
2022/05/13 12:50:38;;;;;;;1.08;1.08;;;23.50;99.90;;;;;;5069934;28;20294;-64
2022/05/13 12:53:35;;;;;;;1.00;0.93;;;23.60;99.90;;;;;;5070777;28;20293;-62
2022/05/13 12:56:12;;;;;;;1.08;1.08;;;23.90;99.90;;;;;;5070029;28;20310;-64
2022/05/13 12:58:44;;;;;;;1.00;1.00;;;24.20;99.90;;;;;;5071785;28;20199;-62
2022/05/13 13:01:13;;;;;;;1.10;1.00;;;24.30;99.90;;;;;;5073578;28;20203;-61
2022/05/13 13:03:43;;;;;;;0.88;0.88;;;24.30;99.90;;;;;;5075314;28;20211;-63
2022/05/13 13:06:16;;;;;;;1.00;0.95;;;23.90;99.90;;;;;;5075986;28;20237;-61
2022/05/13 13:08:46;;;;;;;0.82;0.82;;;23.90;99.90;;;;;;5076718;28;20233;-62
2022/05/13 13:11:26;;;;;;;1.17;1.00;;;24.00;99.90;;;;;;5074079;28;20200;-62
2022/05/13 13:13:59;;;;;;;1.00;1.00;;;23.60;99.90;;;;;;5074934;28;20191;-62
2022/05/13 13:16:33;;;;;;;0.95;0.95;;;23.50;99.90;;;;;;5073138;28;20321;-63
2022/05/13 13:19:12;;;;;;;1.05;0.95;;;23.60;99.90;;;;;;5074112;28;20198;-62
2022/05/13 13:21:40;;;;;;;0.90;0.90;;;24.00;99.90;;;;;;5073305;28;20230;-64
2022/05/13 13:24:16;;;;;;;1.30;1.20;;;24.00;99.90;;;;;;5073706;28;20695;-65
2022/05/13 13:26:47;;;;;;;1.13;1.10;;;24.10;99.90;;;;;;5073636;28;20225;-64
2022/05/13 13:29:19;;;;;;;1.20;1.20;;;24.20;99.90;;;;;;5073827;28;20294;-64
2022/05/13 13:31:48;;;;;;;0.93;0.93;;;24.20;99.90;;;;;;5073008;28;20192;-64
2022/05/13 13:34:32;;;;;;;1.10;1.10;;;24.50;99.90;;;;;;5073507;28;20207;-64
2022/05/13 13:37:00;;;;;;;1.23;1.20;;;24.60;99.90;;;;;;5073323;28;20223;-65
2022/05/13 13:39:29;;;;;;;1.00;1.00;;;24.70;99.90;;;;;;5072172;28;20199;-63
2022/05/13 13:42:05;;;;;;;1.10;1.00;;;24.80;99.90;;;;;;5072939;28;20184;-63